ADDS METAR Data INFO
IDs: Format: Raw Decoded Include TAF

Data at: 1510 UTC 23 Oct 2017

KHUT 231452Z 35018G23KT 10SM CLR 16/04 A3009 RMK AO2 SLP180 T01560039 53042
KHUT 231352Z 36019G26KT 10SM CLR 14/03 A3004 RMK AO2 PK WND 01026/1352 SLP165 T01390028 $
KHUT 231252Z 31008KT 10SM CLR 08/03 A3000 RMK AO2 SLP153 T00780028 $
KHUT 231152Z 28005KT 10SM CLR 08/04 A2996 RMK AO2 SLP136 T00830039 10100 20050 56009 $
KHUT 231052Z AUTO 27008KT 10SM CLR 08/04 A2997 RMK AO2 SLP136 T00780044 $
KHUT 230952Z AUTO 21003KT 10SM CLR 07/04 A2996 RMK AO2 SLP134 T00720039 $
KHUT 230852Z AUTO 20003KT 10SM CLR 08/04 A2999 RMK AO2 SLP143 T00830044 56018 $
KHUT 230752Z AUTO 20006KT 10SM CLR 09/05 A3001 RMK AO2 SLP149 T00890050 $
KHUT 230652Z AUTO 20008KT 10SM CLR 09/05 A3002 RMK AO2 SLP154 T00940050 $
KHUT 230552Z AUTO 19007KT 10SM CLR 09/05 A3004 RMK AO2 SLP163 T00940050 10150 20078 402220039 58009 $
KHUT 230452Z AUTO 19008KT 10SM CLR 11/06 A3005 RMK AO2 SLP167 T01060056 $
KHUT 230352Z 00000KT 10SM R13/4500V5000FT CLR 09/03 A3008 RMK AO2 SLP178 T00890028 $
KHUT 230252Z 00000KT 10SM R13/5000VP6000FT CLR 11/01 A3007 RMK AO2 SLP177 T01060006 58001 $
KHUT 230152Z 00000KT 10SM R13/4500V5500FT CLR 10/01 A3007 RMK AO2 SLP178 T01000006 $
KHUT 230052Z 09004KT 10SM CLR 08/03 A3008 RMK AO2 SLP186 T00830028 $
KHUT 222352Z 10004KT 9SM CLR 16/01 A3008 RMK AO2 SLP178 T01560011 10222 20150 56008 $
KHUT 222252Z 30005KT 10SM CLR 20/M02 A3008 RMK AO2 SLP177 T02001022 $
KHUT 222152Z 32006KT 10SM CLR 22/M04 A3009 RMK AO2 SLP179 T02171044 $
KHUT 222052Z 28003KT 10SM CLR 22/M04 A3010 RMK AO2 SLP182 T02171044 56025 $
KHUT 221952Z 30008KT 10SM CLR 22/M05 A3012 RMK AO2 SLP188 T02171050 $
KHUT 221852Z 28008KT 10SM CLR 20/M02 A3014 RMK AO2 SLP195 T02001022 $
KHUT 221752Z 24010KT 10SM CLR 19/00 A3018 RMK AO2 SLP207 T01890000 10189 20039 58006 $
KHUT 221652Z 25006KT 10SM CLR 17/04 A3020 RMK AO2 SLP215 T01670039 $
KHUT 221552Z 27004KT 10SM CLR 14/05 A3020 RMK AO2 SLP217 T01390050 $
KHUT 221452Z 29007KT 10SM CLR 11/04 A3020 RMK AO2 SLP217 T01060039 53012 $
KHUT 221352Z 29003KT 10SM CLR 07/04 A3018 RMK AO2 SLP212 T00720044 $
KHUT 221252Z 31007KT 10SM CLR 04/03 A3017 RMK AO2 SLP209 T00390028 $
KHUT 221152Z 31007KT 10SM CLR 05/04 A3016 RMK AO2 SLP205 T00500039 10117 20044 51023 $
KHUT 221052Z AUTO 30008KT 10SM CLR 06/04 A3016 RMK AO2 SLP204 T00610044 $
KHUT 220952Z AUTO 30007KT 10SM CLR 06/04 A3011 RMK AO2 SLP187 T00560039 $
KHUT 220852Z AUTO 32005KT 10SM CLR 06/04 A3009 RMK AO2 SLP178 T00610044 51022 $
KHUT 220752Z AUTO 32005KT 10SM CLR 07/04 A3008 RMK AO2 SLP176 T00670044 $
KHUT 220652Z AUTO 00000KT 10SM CLR 11/05 A3006 RMK AO2 SLP166 T01110050 $
KHUT 220552Z AUTO 35005KT 10SM CLR 12/05 A3002 RMK AO2 SLP152 60000 T01170050 10194 20117 402330117 51013 $
KHUT 220452Z AUTO 36008KT 10SM CLR 13/04 A3002 RMK AO2 SLP150 T01280044 $
KHUT 220352Z 01008G16KT 10SM CLR 14/04 A3000 RMK AO2 SLP145 T01390044 $